sensor_id;sensor_type;location;lat;lon;timestamp;P1;durP1;ratioP1;P2;durP2;ratioP2
7316;SDS011;3699;51.462;6.696;2022-08-19T00:00:15;16.23;;;14.53;;
7316;SDS011;3699;51.462;6.696;2022-08-19T00:02:42;12.83;;;11.37;;
7316;SDS011;3699;51.462;6.696;2022-08-19T00:05:12;13.43;;;12.07;;
7316;SDS011;3699;51.462;6.696;2022-08-19T00:07:40;14.50;;;13.10;;
7316;SDS011;3699;51.462;6.696;2022-08-19T00:10:09;12.10;;;10.93;;
7316;SDS011;3699;51.462;6.696;2022-08-19T00:12:39;15.57;;;12.40;;
7316;SDS011;3699;51.462;6.696;2022-08-19T00:15:08;22.83;;;20.63;;
7316;SDS011;3699;51.462;6.696;2022-08-19T00:17:37;24.57;;;22.07;;
7316;SDS011;3699;51.462;6.696;2022-08-19T00:20:05;15.83;;;14.23;;
7316;SDS011;3699;51.462;6.696;2022-08-19T00:22:34;16.57;;;14.97;;
7316;SDS011;3699;51.462;6.696;2022-08-19T00:25:00;16.50;;;14.90;;
7316;SDS011;3699;51.462;6.696;2022-08-19T00:27:27;21.80;;;19.80;;
7316;SDS011;3699;51.462;6.696;2022-08-19T00:29:54;29.33;;;26.40;;
7316;SDS011;3699;51.462;6.696;2022-08-19T00:32:21;22.77;;;20.47;;
7316;SDS011;3699;51.462;6.696;2022-08-19T00:34:48;13.87;;;12.63;;
7316;SDS011;3699;51.462;6.696;2022-08-19T00:37:16;14.47;;;13.13;;
7316;SDS011;3699;51.462;6.696;2022-08-19T00:39:44;11.37;;;10.20;;
7316;SDS011;3699;51.462;6.696;2022-08-19T00:42:11;12.37;;;11.13;;
7316;SDS011;3699;51.462;6.696;2022-08-19T00:44:40;14.00;;;12.70;;
7316;SDS011;3699;51.462;6.696;2022-08-19T00:47:08;12.53;;;11.33;;
7316;SDS011;3699;51.462;6.696;2022-08-19T00:49:36;14.77;;;13.27;;
7316;SDS011;3699;51.462;6.696;2022-08-19T00:52:09;13.60;;;12.00;;
7316;SDS011;3699;51.462;6.696;2022-08-19T00:54:40;16.93;;;15.40;;
7316;SDS011;3699;51.462;6.696;2022-08-19T00:57:09;19.97;;;17.17;;
7316;SDS011;3699;51.462;6.696;2022-08-19T00:59:41;18.97;;;17.07;;
7316;SDS011;3699;51.462;6.696;2022-08-19T01:02:10;15.33;;;13.70;;
7316;SDS011;3699;51.462;6.696;2022-08-19T01:04:38;18.47;;;16.67;;
7316;SDS011;3699;51.462;6.696;2022-08-19T01:07:04;19.10;;;17.20;;
7316;SDS011;3699;51.462;6.696;2022-08-19T01:09:31;13.33;;;12.03;;
7316;SDS011;3699;51.462;6.696;2022-08-19T01:11:59;15.87;;;14.33;;
7316;SDS011;3699;51.462;6.696;2022-08-19T01:14:28;21.43;;;19.20;;
7316;SDS011;3699;51.462;6.696;2022-08-19T01:16:55;14.23;;;12.93;;
7316;SDS011;3699;51.462;6.696;2022-08-19T01:19:26;16.10;;;14.53;;
7316;SDS011;3699;51.462;6.696;2022-08-19T01:21:57;15.87;;;14.27;;
7316;SDS011;3699;51.462;6.696;2022-08-19T01:24:29;14.70;;;13.30;;
7316;SDS011;3699;51.462;6.696;2022-08-19T01:26:56;15.40;;;13.80;;
7316;SDS011;3699;51.462;6.696;2022-08-19T01:29:24;16.80;;;15.17;;
7316;SDS011;3699;51.462;6.696;2022-08-19T01:31:50;14.63;;;13.23;;
7316;SDS011;3699;51.462;6.696;2022-08-19T01:34:18;16.53;;;14.40;;
7316;SDS011;3699;51.462;6.696;2022-08-19T01:36:46;13.20;;;11.90;;
7316;SDS011;3699;51.462;6.696;2022-08-19T01:39:14;17.07;;;15.50;;
7316;SDS011;3699;51.462;6.696;2022-08-19T01:41:45;19.23;;;17.17;;
7316;SDS011;3699;51.462;6.696;2022-08-19T01:44:12;23.23;;;20.87;;
7316;SDS011;3699;51.462;6.696;2022-08-19T01:46:41;19.83;;;17.83;;
7316;SDS011;3699;51.462;6.696;2022-08-19T01:49:08;24.10;;;16.00;;
7316;SDS011;3699;51.462;6.696;2022-08-19T01:51:35;17.10;;;15.37;;
7316;SDS011;3699;51.462;6.696;2022-08-19T01:54:03;14.20;;;12.73;;
7316;SDS011;3699;51.462;6.696;2022-08-19T01:56:30;17.40;;;15.70;;
7316;SDS011;3699;51.462;6.696;2022-08-19T01:59:00;17.90;;;16.10;;
7316;SDS011;3699;51.462;6.696;2022-08-19T02:01:30;15.37;;;12.60;;
7316;SDS011;3699;51.462;6.696;2022-08-19T02:03:59;15.93;;;14.43;;
7316;SDS011;3699;51.462;6.696;2022-08-19T02:06:26;17.30;;;13.93;;
7316;SDS011;3699;51.462;6.696;2022-08-19T02:08:53;14.47;;;12.83;;
7316;SDS011;3699;51.462;6.696;2022-08-19T02:11:21;13.13;;;11.83;;
7316;SDS011;3699;51.462;6.696;2022-08-19T02:13:51;20.23;;;18.23;;
7316;SDS011;3699;51.462;6.696;2022-08-19T02:16:20;21.87;;;19.30;;
7316;SDS011;3699;51.462;6.696;2022-08-19T02:18:48;21.60;;;19.27;;
7316;SDS011;3699;51.462;6.696;2022-08-19T02:21:15;20.03;;;18.03;;
7316;SDS011;3699;51.462;6.696;2022-08-19T02:23:43;16.33;;;14.80;;
7316;SDS011;3699;51.462;6.696;2022-08-19T02:26:10;17.53;;;15.73;;
7316;SDS011;3699;51.462;6.696;2022-08-19T02:28:37;23.20;;;20.70;;
7316;SDS011;3699;51.462;6.696;2022-08-19T02:31:08;26.90;;;24.13;;
7316;SDS011;3699;51.462;6.696;2022-08-19T02:33:37;28.13;;;24.33;;
7316;SDS011;3699;51.462;6.696;2022-08-19T02:36:04;26.83;;;24.03;;
7316;SDS011;3699;51.462;6.696;2022-08-19T02:38:32;26.23;;;23.37;;
7316;SDS011;3699;51.462;6.696;2022-08-19T02:40:58;26.40;;;21.87;;
7316;SDS011;3699;51.462;6.696;2022-08-19T02:43:27;28.33;;;24.73;;
7316;SDS011;3699;51.462;6.696;2022-08-19T02:45:55;27.27;;;24.30;;
7316;SDS011;3699;51.462;6.696;2022-08-19T02:48:23;25.67;;;22.97;;
7316;SDS011;3699;51.462;6.696;2022-08-19T02:50:52;26.93;;;24.13;;
7316;SDS011;3699;51.462;6.696;2022-08-19T02:53:21;25.43;;;22.77;;
7316;SDS011;3699;51.462;6.696;2022-08-19T02:55:49;26.67;;;22.37;;
7316;SDS011;3699;51.462;6.696;2022-08-19T02:58:16;20.97;;;18.70;;
7316;SDS011;3699;51.462;6.696;2022-08-19T03:00:44;24.43;;;21.83;;
7316;SDS011;3699;51.462;6.696;2022-08-19T03:03:13;29.97;;;26.77;;
7316;SDS011;3699;51.462;6.696;2022-08-19T03:05:40;30.47;;;26.90;;
7316;SDS011;3699;51.462;6.696;2022-08-19T03:08:09;29.60;;;26.23;;
7316;SDS011;3699;51.462;6.696;2022-08-19T03:10:41;32.10;;;28.70;;
7316;SDS011;3699;51.462;6.696;2022-08-19T03:13:10;26.30;;;23.47;;
7316;SDS011;3699;51.462;6.696;2022-08-19T03:15:41;26.30;;;23.43;;
7316;SDS011;3699;51.462;6.696;2022-08-19T03:18:10;26.60;;;23.63;;
7316;SDS011;3699;51.462;6.696;2022-08-19T03:20:41;27.53;;;24.63;;
7316;SDS011;3699;51.462;6.696;2022-08-19T03:23:11;27.90;;;23.37;;
7316;SDS011;3699;51.462;6.696;2022-08-19T03:25:38;22.83;;;20.33;;
7316;SDS011;3699;51.462;6.696;2022-08-19T03:28:07;22.80;;;19.90;;
7316;SDS011;3699;51.462;6.696;2022-08-19T03:30:33;23.97;;;20.27;;
7316;SDS011;3699;51.462;6.696;2022-08-19T03:33:00;26.83;;;21.73;;
7316;SDS011;3699;51.462;6.696;2022-08-19T03:35:28;26.47;;;21.80;;
7316;SDS011;3699;51.462;6.696;2022-08-19T03:37:54;27.00;;;21.00;;
7316;SDS011;3699;51.462;6.696;2022-08-19T03:40:23;25.60;;;20.53;;
7316;SDS011;3699;51.462;6.696;2022-08-19T03:42:50;25.57;;;20.90;;
7316;SDS011;3699;51.462;6.696;2022-08-19T03:45:17;25.37;;;20.93;;
7316;SDS011;3699;51.462;6.696;2022-08-19T03:47:45;26.50;;;22.20;;
7316;SDS011;3699;51.462;6.696;2022-08-19T03:50:12;27.67;;;23.00;;
7316;SDS011;3699;51.462;6.696;2022-08-19T03:52:39;20.83;;;18.63;;
7316;SDS011;3699;51.462;6.696;2022-08-19T03:55:06;25.77;;;22.20;;
7316;SDS011;3699;51.462;6.696;2022-08-19T03:57:34;27.50;;;21.33;;
7316;SDS011;3699;51.462;6.696;2022-08-19T04:00:03;26.43;;;22.53;;
7316;SDS011;3699;51.462;6.696;2022-08-19T04:02:31;24.33;;;21.73;;
7316;SDS011;3699;51.462;6.696;2022-08-19T04:04:58;27.87;;;22.70;;
7316;SDS011;3699;51.462;6.696;2022-08-19T04:07:25;28.07;;;24.10;;
7316;SDS011;3699;51.462;6.696;2022-08-19T04:09:51;27.57;;;23.47;;
7316;SDS011;3699;51.462;6.696;2022-08-19T04:12:18;23.07;;;20.40;;
7316;SDS011;3699;51.462;6.696;2022-08-19T04:14:47;26.83;;;19.70;;
7316;SDS011;3699;51.462;6.696;2022-08-19T04:17:13;22.53;;;19.00;;
7316;SDS011;3699;51.462;6.696;2022-08-19T04:19:40;27.40;;;23.87;;
7316;SDS011;3699;51.462;6.696;2022-08-19T04:22:08;25.67;;;22.87;;
7316;SDS011;3699;51.462;6.696;2022-08-19T04:24:35;24.63;;;21.83;;
7316;SDS011;3699;51.462;6.696;2022-08-19T04:27:03;27.83;;;23.63;;
7316;SDS011;3699;51.462;6.696;2022-08-19T04:29:31;30.37;;;24.37;;
7316;SDS011;3699;51.462;6.696;2022-08-19T04:31:59;30.57;;;25.70;;
7316;SDS011;3699;51.462;6.696;2022-08-19T04:34:27;32.40;;;25.47;;
7316;SDS011;3699;51.462;6.696;2022-08-19T04:36:55;35.93;;;27.17;;
7316;SDS011;3699;51.462;6.696;2022-08-19T04:39:25;36.27;;;27.43;;
7316;SDS011;3699;51.462;6.696;2022-08-19T04:42:13;33.30;;;26.60;;
7316;SDS011;3699;51.462;6.696;2022-08-19T04:44:57;38.50;;;28.90;;
7316;SDS011;3699;51.462;6.696;2022-08-19T04:47:25;37.07;;;28.90;;
7316;SDS011;3699;51.462;6.696;2022-08-19T04:49:52;40.43;;;28.17;;
7316;SDS011;3699;51.462;6.696;2022-08-19T04:52:19;38.10;;;27.90;;
7316;SDS011;3699;51.462;6.696;2022-08-19T04:54:46;35.13;;;26.50;;
7316;SDS011;3699;51.462;6.696;2022-08-19T04:57:13;40.43;;;30.67;;
7316;SDS011;3699;51.462;6.696;2022-08-19T04:59:40;41.03;;;29.23;;
7316;SDS011;3699;51.462;6.696;2022-08-19T05:02:07;38.87;;;28.60;;
7316;SDS011;3699;51.462;6.696;2022-08-19T05:04:36;41.90;;;29.87;;
7316;SDS011;3699;51.462;6.696;2022-08-19T05:07:04;46.23;;;31.40;;
7316;SDS011;3699;51.462;6.696;2022-08-19T05:09:31;44.13;;;32.00;;
7316;SDS011;3699;51.462;6.696;2022-08-19T05:11:58;42.73;;;31.83;;
7316;SDS011;3699;51.462;6.696;2022-08-19T05:14:25;45.03;;;32.73;;
7316;SDS011;3699;51.462;6.696;2022-08-19T05:16:52;44.63;;;32.77;;
7316;SDS011;3699;51.462;6.696;2022-08-19T05:19:18;49.07;;;35.13;;
7316;SDS011;3699;51.462;6.696;2022-08-19T05:22:09;48.30;;;33.87;;
7316;SDS011;3699;51.462;6.696;2022-08-19T05:24:53;44.10;;;32.00;;
7316;SDS011;3699;51.462;6.696;2022-08-19T05:27:20;40.03;;;31.30;;
7316;SDS011;3699;51.462;6.696;2022-08-19T05:29:47;40.33;;;31.67;;
7316;SDS011;3699;51.462;6.696;2022-08-19T05:32:14;43.80;;;31.53;;
7316;SDS011;3699;51.462;6.696;2022-08-19T05:34:41;39.77;;;30.70;;
7316;SDS011;3699;51.462;6.696;2022-08-19T05:37:07;39.90;;;30.13;;
7316;SDS011;3699;51.462;6.696;2022-08-19T05:39:36;39.00;;;30.83;;
7316;SDS011;3699;51.462;6.696;2022-08-19T05:42:06;36.87;;;29.27;;
7316;SDS011;3699;51.462;6.696;2022-08-19T05:44:35;34.10;;;27.20;;
7316;SDS011;3699;51.462;6.696;2022-08-19T05:47:04;37.40;;;26.90;;
7316;SDS011;3699;51.462;6.696;2022-08-19T05:49:33;32.77;;;27.37;;
7316;SDS011;3699;51.462;6.696;2022-08-19T05:52:01;35.60;;;28.07;;
7316;SDS011;3699;51.462;6.696;2022-08-19T05:54:31;41.50;;;30.17;;
7316;SDS011;3699;51.462;6.696;2022-08-19T05:57:00;35.30;;;28.60;;
7316;SDS011;3699;51.462;6.696;2022-08-19T05:59:27;33.87;;;27.87;;
7316;SDS011;3699;51.462;6.696;2022-08-19T06:01:53;32.67;;;26.03;;
7316;SDS011;3699;51.462;6.696;2022-08-19T06:04:22;34.67;;;28.87;;
7316;SDS011;3699;51.462;6.696;2022-08-19T06:06:51;31.67;;;26.80;;
7316;SDS011;3699;51.462;6.696;2022-08-19T06:09:19;29.23;;;25.03;;
7316;SDS011;3699;51.462;6.696;2022-08-19T06:11:48;31.00;;;26.83;;
7316;SDS011;3699;51.462;6.696;2022-08-19T06:14:20;29.43;;;25.43;;
7316;SDS011;3699;51.462;6.696;2022-08-19T06:16:49;29.20;;;24.13;;
7316;SDS011;3699;51.462;6.696;2022-08-19T06:19:17;28.47;;;25.43;;
7316;SDS011;3699;51.462;6.696;2022-08-19T06:21:46;29.33;;;26.20;;
7316;SDS011;3699;51.462;6.696;2022-08-19T06:24:15;29.63;;;26.13;;
7316;SDS011;3699;51.462;6.696;2022-08-19T06:26:44;31.57;;;27.70;;
7316;SDS011;3699;51.462;6.696;2022-08-19T06:29:15;32.73;;;29.23;;
7316;SDS011;3699;51.462;6.696;2022-08-19T06:31:43;33.73;;;27.87;;
7316;SDS011;3699;51.462;6.696;2022-08-19T06:34:14;33.83;;;29.03;;
7316;SDS011;3699;51.462;6.696;2022-08-19T06:36:42;32.00;;;28.47;;
7316;SDS011;3699;51.462;6.696;2022-08-19T06:39:12;33.63;;;27.70;;
7316;SDS011;3699;51.462;6.696;2022-08-19T06:41:41;30.10;;;26.90;;
7316;SDS011;3699;51.462;6.696;2022-08-19T06:44:10;30.63;;;26.97;;
7316;SDS011;3699;51.462;6.696;2022-08-19T06:46:40;35.87;;;28.20;;
7316;SDS011;3699;51.462;6.696;2022-08-19T06:49:07;33.87;;;29.43;;
7316;SDS011;3699;51.462;6.696;2022-08-19T06:51:38;33.87;;;28.70;;
7316;SDS011;3699;51.462;6.696;2022-08-19T06:54:05;33.43;;;29.83;;
7316;SDS011;3699;51.462;6.696;2022-08-19T06:56:32;31.30;;;27.90;;
7316;SDS011;3699;51.462;6.696;2022-08-19T06:58:59;33.60;;;28.77;;
7316;SDS011;3699;51.462;6.696;2022-08-19T07:01:26;31.57;;;27.97;;
7316;SDS011;3699;51.462;6.696;2022-08-19T07:03:55;33.77;;;30.07;;
7316;SDS011;3699;51.462;6.696;2022-08-19T07:06:22;33.43;;;29.87;;
7316;SDS011;3699;51.462;6.696;2022-08-19T07:08:49;33.37;;;29.77;;
7316;SDS011;3699;51.462;6.696;2022-08-19T07:11:16;34.77;;;29.53;;
7316;SDS011;3699;51.462;6.696;2022-08-19T07:13:45;36.28;;;31.75;;
7316;SDS011;3699;51.462;6.696;2022-08-19T07:16:14;31.57;;;28.27;;
7316;SDS011;3699;51.462;6.696;2022-08-19T07:18:44;37.00;;;31.57;;
7316;SDS011;3699;51.462;6.696;2022-08-19T07:21:13;32.57;;;29.07;;
7316;SDS011;3699;51.462;6.696;2022-08-19T07:23:42;29.83;;;26.52;;
7316;SDS011;3699;51.462;6.696;2022-08-19T07:26:11;30.70;;;26.77;;
7316;SDS011;3699;51.462;6.696;2022-08-19T07:28:40;30.08;;;25.95;;
7316;SDS011;3699;51.462;6.696;2022-08-19T07:31:09;34.10;;;25.30;;
7316;SDS011;3699;51.462;6.696;2022-08-19T07:33:37;34.20;;;25.77;;
7316;SDS011;3699;51.462;6.696;2022-08-19T07:36:04;26.93;;;24.00;;
7316;SDS011;3699;51.462;6.696;2022-08-19T07:38:34;28.20;;;23.90;;
7316;SDS011;3699;51.462;6.696;2022-08-19T07:41:00;27.13;;;22.40;;
7316;SDS011;3699;51.462;6.696;2022-08-19T07:43:27;27.00;;;22.20;;
7316;SDS011;3699;51.462;6.696;2022-08-19T07:45:54;26.77;;;20.83;;
7316;SDS011;3699;51.462;6.696;2022-08-19T07:48:22;29.50;;;22.23;;
7316;SDS011;3699;51.462;6.696;2022-08-19T07:50:50;26.87;;;20.77;;
7316;SDS011;3699;51.462;6.696;2022-08-19T07:53:17;22.53;;;19.33;;
7316;SDS011;3699;51.462;6.696;2022-08-19T07:55:46;26.27;;;18.30;;
7316;SDS011;3699;51.462;6.696;2022-08-19T07:58:14;20.33;;;18.07;;
7316;SDS011;3699;51.462;6.696;2022-08-19T08:00:42;19.97;;;17.23;;
7316;SDS011;3699;51.462;6.696;2022-08-19T08:03:11;19.67;;;16.10;;
7316;SDS011;3699;51.462;6.696;2022-08-19T08:05:38;21.33;;;16.70;;
7316;SDS011;3699;51.462;6.696;2022-08-19T08:08:22;23.47;;;17.13;;
7316;SDS011;3699;51.462;6.696;2022-08-19T08:11:05;23.37;;;15.53;;
7316;SDS011;3699;51.462;6.696;2022-08-19T08:13:32;20.97;;;16.03;;
7316;SDS011;3699;51.462;6.696;2022-08-19T08:16:00;19.67;;;15.23;;
7316;SDS011;3699;51.462;6.696;2022-08-19T08:18:27;18.30;;;13.97;;
7316;SDS011;3699;51.462;6.696;2022-08-19T08:20:55;19.07;;;14.73;;
7316;SDS011;3699;51.462;6.696;2022-08-19T08:23:23;17.53;;;14.93;;
7316;SDS011;3699;51.462;6.696;2022-08-19T08:25:51;16.73;;;14.03;;
7316;SDS011;3699;51.462;6.696;2022-08-19T08:28:22;18.00;;;15.07;;
7316;SDS011;3699;51.462;6.696;2022-08-19T08:30:49;16.57;;;13.40;;
7316;SDS011;3699;51.462;6.696;2022-08-19T08:33:17;27.37;;;18.33;;
7316;SDS011;3699;51.462;6.696;2022-08-19T08:35:46;22.20;;;17.93;;
7316;SDS011;3699;51.462;6.696;2022-08-19T08:38:13;21.37;;;15.97;;
7316;SDS011;3699;51.462;6.696;2022-08-19T08:40:43;22.80;;;17.90;;
7316;SDS011;3699;51.462;6.696;2022-08-19T08:43:14;17.77;;;14.57;;
7316;SDS011;3699;51.462;6.696;2022-08-19T08:45:52;19.73;;;16.13;;
7316;SDS011;3699;51.462;6.696;2022-08-19T08:48:23;14.40;;;11.27;;
7316;SDS011;3699;51.462;6.696;2022-08-19T08:50:57;25.07;;;18.13;;
7316;SDS011;3699;51.462;6.696;2022-08-19T08:53:27;19.17;;;15.43;;
7316;SDS011;3699;51.462;6.696;2022-08-19T08:55:55;17.37;;;15.20;;
7316;SDS011;3699;51.462;6.696;2022-08-19T08:58:24;18.60;;;14.20;;
7316;SDS011;3699;51.462;6.696;2022-08-19T09:00:57;17.90;;;14.85;;
7316;SDS011;3699;51.462;6.696;2022-08-19T09:03:25;19.53;;;15.87;;
7316;SDS011;3699;51.462;6.696;2022-08-19T09:05:56;19.20;;;14.80;;
7316;SDS011;3699;51.462;6.696;2022-08-19T09:08:28;22.07;;;15.10;;
7316;SDS011;3699;51.462;6.696;2022-08-19T09:11:06;14.13;;;10.63;;
7316;SDS011;3699;51.462;6.696;2022-08-19T09:13:37;23.05;;;16.00;;
7316;SDS011;3699;51.462;6.696;2022-08-19T09:16:24;13.03;;;11.07;;
7316;SDS011;3699;51.462;6.696;2022-08-19T09:18:53;16.67;;;14.32;;
7316;SDS011;3699;51.462;6.696;2022-08-19T09:21:23;20.13;;;15.50;;
7316;SDS011;3699;51.462;6.696;2022-08-19T09:23:50;15.50;;;12.43;;
7316;SDS011;3699;51.462;6.696;2022-08-19T09:26:17;18.50;;;13.80;;
7316;SDS011;3699;51.462;6.696;2022-08-19T09:28:46;17.93;;;14.20;;
7316;SDS011;3699;51.462;6.696;2022-08-19T09:31:15;18.40;;;13.55;;
7316;SDS011;3699;51.462;6.696;2022-08-19T09:33:45;17.17;;;12.27;;
7316;SDS011;3699;51.462;6.696;2022-08-19T09:36:14;19.25;;;15.60;;
7316;SDS011;3699;51.462;6.696;2022-08-19T09:38:43;18.33;;;16.13;;
7316;SDS011;3699;51.462;6.696;2022-08-19T09:41:11;14.33;;;12.50;;
7316;SDS011;3699;51.462;6.696;2022-08-19T09:43:40;16.17;;;14.07;;
7316;SDS011;3699;51.462;6.696;2022-08-19T09:46:08;17.73;;;15.10;;
7316;SDS011;3699;51.462;6.696;2022-08-19T09:48:35;21.13;;;16.47;;
7316;SDS011;3699;51.462;6.696;2022-08-19T09:51:04;18.10;;;12.37;;
7316;SDS011;3699;51.462;6.696;2022-08-19T09:53:33;17.52;;;14.63;;
7316;SDS011;3699;51.462;6.696;2022-08-19T09:56:00;15.57;;;12.53;;
7316;SDS011;3699;51.462;6.696;2022-08-19T09:58:28;16.97;;;14.80;;
7316;SDS011;3699;51.462;6.696;2022-08-19T10:00:55;15.00;;;12.00;;
7316;SDS011;3699;51.462;6.696;2022-08-19T10:03:23;23.00;;;13.73;;
7316;SDS011;3699;51.462;6.696;2022-08-19T10:05:50;16.55;;;14.65;;
7316;SDS011;3699;51.462;6.696;2022-08-19T10:08:19;20.90;;;13.30;;
7316;SDS011;3699;51.462;6.696;2022-08-19T10:10:49;16.33;;;13.57;;
7316;SDS011;3699;51.462;6.696;2022-08-19T10:13:17;12.93;;;11.40;;
7316;SDS011;3699;51.462;6.696;2022-08-19T10:15:46;15.15;;;12.45;;
7316;SDS011;3699;51.462;6.696;2022-08-19T10:18:15;13.73;;;11.13;;
7316;SDS011;3699;51.462;6.696;2022-08-19T10:20:44;14.90;;;12.45;;
7316;SDS011;3699;51.462;6.696;2022-08-19T10:23:11;16.48;;;14.13;;
7316;SDS011;3699;51.462;6.696;2022-08-19T10:25:39;14.60;;;11.57;;
7316;SDS011;3699;51.462;6.696;2022-08-19T10:28:06;14.33;;;11.80;;
7316;SDS011;3699;51.462;6.696;2022-08-19T10:30:33;12.87;;;10.87;;
7316;SDS011;3699;51.462;6.696;2022-08-19T10:33:01;15.10;;;11.38;;
7316;SDS011;3699;51.462;6.696;2022-08-19T10:35:28;16.47;;;13.73;;
7316;SDS011;3699;51.462;6.696;2022-08-19T10:37:55;13.43;;;10.20;;
7316;SDS011;3699;51.462;6.696;2022-08-19T10:40:24;16.77;;;11.93;;
7316;SDS011;3699;51.462;6.696;2022-08-19T10:42:53;17.73;;;10.40;;
7316;SDS011;3699;51.462;6.696;2022-08-19T10:45:20;18.33;;;11.95;;
7316;SDS011;3699;51.462;6.696;2022-08-19T10:47:50;11.97;;;9.70;;
7316;SDS011;3699;51.462;6.696;2022-08-19T10:50:18;14.43;;;10.37;;
7316;SDS011;3699;51.462;6.696;2022-08-19T10:53:03;15.73;;;10.30;;
7316;SDS011;3699;51.462;6.696;2022-08-19T10:55:33;11.33;;;9.93;;
7316;SDS011;3699;51.462;6.696;2022-08-19T10:58:20;13.03;;;10.57;;
7316;SDS011;3699;51.462;6.696;2022-08-19T11:00:53;11.83;;;9.20;;
7316;SDS011;3699;51.462;6.696;2022-08-19T11:03:21;15.03;;;10.03;;
7316;SDS011;3699;51.462;6.696;2022-08-19T11:05:56;9.90;;;8.13;;
7316;SDS011;3699;51.462;6.696;2022-08-19T11:08:24;10.13;;;8.77;;
7316;SDS011;3699;51.462;6.696;2022-08-19T11:10:51;12.68;;;9.85;;
7316;SDS011;3699;51.462;6.696;2022-08-19T11:13:21;12.10;;;7.82;;
7316;SDS011;3699;51.462;6.696;2022-08-19T11:15:55;11.65;;;10.43;;
7316;SDS011;3699;51.462;6.696;2022-08-19T11:18:23;10.88;;;9.32;;
7316;SDS011;3699;51.462;6.696;2022-08-19T11:20:50;13.43;;;8.10;;
7316;SDS011;3699;51.462;6.696;2022-08-19T11:23:17;10.73;;;8.55;;
7316;SDS011;3699;51.462;6.696;2022-08-19T11:25:44;7.82;;;7.03;;
7316;SDS011;3699;51.462;6.696;2022-08-19T11:28:11;9.00;;;7.60;;
7316;SDS011;3699;51.462;6.696;2022-08-19T11:30:39;7.72;;;7.03;;
7316;SDS011;3699;51.462;6.696;2022-08-19T11:33:06;8.47;;;7.67;;
7316;SDS011;3699;51.462;6.696;2022-08-19T11:35:32;9.07;;;7.22;;
7316;SDS011;3699;51.462;6.696;2022-08-19T11:37:59;10.87;;;7.50;;
7316;SDS011;3699;51.462;6.696;2022-08-19T11:40:27;9.98;;;7.97;;
7316;SDS011;3699;51.462;6.696;2022-08-19T11:42:54;8.30;;;6.70;;
7316;SDS011;3699;51.462;6.696;2022-08-19T11:45:21;11.93;;;8.57;;
7316;SDS011;3699;51.462;6.696;2022-08-19T11:47:50;9.88;;;7.55;;
7316;SDS011;3699;51.462;6.696;2022-08-19T11:50:17;7.57;;;6.72;;
7316;SDS011;3699;51.462;6.696;2022-08-19T11:52:44;7.63;;;6.80;;
7316;SDS011;3699;51.462;6.696;2022-08-19T11:55:11;10.43;;;8.60;;
7316;SDS011;3699;51.462;6.696;2022-08-19T11:57:38;9.95;;;7.60;;
7316;SDS011;3699;51.462;6.696;2022-08-19T12:00:06;7.75;;;6.80;;
7316;SDS011;3699;51.462;6.696;2022-08-19T12:02:35;16.23;;;7.22;;
7316;SDS011;3699;51.462;6.696;2022-08-19T12:05:03;10.90;;;8.00;;
7316;SDS011;3699;51.462;6.696;2022-08-19T12:07:31;10.85;;;7.55;;
7316;SDS011;3699;51.462;6.696;2022-08-19T12:09:59;6.72;;;6.05;;
7316;SDS011;3699;51.462;6.696;2022-08-19T12:12:26;7.13;;;6.43;;
7316;SDS011;3699;51.462;6.696;2022-08-19T12:14:53;10.98;;;6.70;;
7316;SDS011;3699;51.462;6.696;2022-08-19T12:17:23;7.00;;;6.25;;
7316;SDS011;3699;51.462;6.696;2022-08-19T12:19:50;7.60;;;6.78;;
7316;SDS011;3699;51.462;6.696;2022-08-19T12:22:18;8.90;;;6.25;;
7316;SDS011;3699;51.462;6.696;2022-08-19T12:24:46;7.75;;;6.15;;
7316;SDS011;3699;51.462;6.696;2022-08-19T12:27:15;8.85;;;5.75;;
7316;SDS011;3699;51.462;6.696;2022-08-19T12:29:42;5.78;;;5.13;;
7316;SDS011;3699;51.462;6.696;2022-08-19T12:32:09;6.93;;;5.05;;
7316;SDS011;3699;51.462;6.696;2022-08-19T12:34:36;6.00;;;5.18;;
7316;SDS011;3699;51.462;6.696;2022-08-19T12:37:04;8.52;;;5.45;;
7316;SDS011;3699;51.462;6.696;2022-08-19T12:39:35;5.60;;;5.10;;
7316;SDS011;3699;51.462;6.696;2022-08-19T12:42:04;6.13;;;5.28;;
7316;SDS011;3699;51.462;6.696;2022-08-19T12:44:32;5.10;;;4.60;;
7316;SDS011;3699;51.462;6.696;2022-08-19T12:46:59;5.65;;;4.68;;
7316;SDS011;3699;51.462;6.696;2022-08-19T12:49:29;4.68;;;4.20;;
7316;SDS011;3699;51.462;6.696;2022-08-19T12:51:58;4.63;;;4.20;;
7316;SDS011;3699;51.462;6.696;2022-08-19T12:54:25;5.40;;;4.90;;
7316;SDS011;3699;51.462;6.696;2022-08-19T12:56:53;4.97;;;4.57;;
7316;SDS011;3699;51.462;6.696;2022-08-19T12:59:21;7.95;;;4.53;;
7316;SDS011;3699;51.462;6.696;2022-08-19T13:01:47;5.20;;;4.70;;
7316;SDS011;3699;51.462;6.696;2022-08-19T13:04:14;8.85;;;5.57;;
7316;SDS011;3699;51.462;6.696;2022-08-19T13:06:41;5.78;;;4.75;;
7316;SDS011;3699;51.462;6.696;2022-08-19T13:09:08;6.18;;;5.47;;
7316;SDS011;3699;51.462;6.696;2022-08-19T13:11:36;6.90;;;5.55;;
7316;SDS011;3699;51.462;6.696;2022-08-19T13:14:05;7.65;;;5.95;;
7316;SDS011;3699;51.462;6.696;2022-08-19T13:16:31;6.10;;;5.18;;
7316;SDS011;3699;51.462;6.696;2022-08-19T13:18:58;5.38;;;4.85;;
7316;SDS011;3699;51.462;6.696;2022-08-19T13:21:27;5.85;;;4.72;;
7316;SDS011;3699;51.462;6.696;2022-08-19T13:23:55;5.60;;;4.78;;
7316;SDS011;3699;51.462;6.696;2022-08-19T13:26:21;5.47;;;4.90;;
7316;SDS011;3699;51.462;6.696;2022-08-19T13:28:49;6.03;;;4.95;;
7316;SDS011;3699;51.462;6.696;2022-08-19T13:31:35;5.78;;;4.93;;
7316;SDS011;3699;51.462;6.696;2022-08-19T13:34:26;6.50;;;5.18;;
7316;SDS011;3699;51.462;6.696;2022-08-19T13:36:54;6.05;;;5.25;;
7316;SDS011;3699;51.462;6.696;2022-08-19T13:39:21;6.32;;;5.13;;
7316;SDS011;3699;51.462;6.696;2022-08-19T13:41:48;7.03;;;5.75;;
7316;SDS011;3699;51.462;6.696;2022-08-19T13:44:15;5.78;;;5.18;;
7316;SDS011;3699;51.462;6.696;2022-08-19T13:46:45;6.63;;;6.03;;
7316;SDS011;3699;51.462;6.696;2022-08-19T13:49:13;8.02;;;6.70;;
7316;SDS011;3699;51.462;6.696;2022-08-19T13:51:41;7.03;;;6.35;;
7316;SDS011;3699;51.462;6.696;2022-08-19T13:54:09;8.45;;;5.90;;
7316;SDS011;3699;51.462;6.696;2022-08-19T13:56:39;11.23;;;6.47;;
7316;SDS011;3699;51.462;6.696;2022-08-19T13:59:06;8.15;;;5.75;;
7316;SDS011;3699;51.462;6.696;2022-08-19T14:01:33;10.50;;;6.30;;
7316;SDS011;3699;51.462;6.696;2022-08-19T14:04:02;8.15;;;6.65;;
7316;SDS011;3699;51.462;6.696;2022-08-19T14:06:29;12.50;;;7.40;;
7316;SDS011;3699;51.462;6.696;2022-08-19T14:08:56;7.82;;;7.07;;
7316;SDS011;3699;51.462;6.696;2022-08-19T14:11:22;7.20;;;6.50;;
7316;SDS011;3699;51.462;6.696;2022-08-19T14:13:49;8.23;;;5.97;;
7316;SDS011;3699;51.462;6.696;2022-08-19T14:16:16;11.35;;;6.55;;
7316;SDS011;3699;51.462;6.696;2022-08-19T14:18:43;9.52;;;6.57;;
7316;SDS011;3699;51.462;6.696;2022-08-19T14:21:15;6.95;;;5.53;;
7316;SDS011;3699;51.462;6.696;2022-08-19T14:23:45;7.25;;;5.40;;
7316;SDS011;3699;51.462;6.696;2022-08-19T14:26:13;5.72;;;5.15;;
7316;SDS011;3699;51.462;6.696;2022-08-19T14:28:42;6.60;;;5.17;;
7316;SDS011;3699;51.462;6.696;2022-08-19T14:31:09;6.75;;;5.20;;
7316;SDS011;3699;51.462;6.696;2022-08-19T14:33:37;5.22;;;4.55;;
7316;SDS011;3699;51.462;6.696;2022-08-19T14:36:05;7.05;;;5.50;;
7316;SDS011;3699;51.462;6.696;2022-08-19T14:38:33;4.75;;;4.35;;
7316;SDS011;3699;51.462;6.696;2022-08-19T14:41:11;5.53;;;4.32;;
7316;SDS011;3699;51.462;6.696;2022-08-19T14:43:41;5.25;;;4.50;;
7316;SDS011;3699;51.462;6.696;2022-08-19T14:46:10;4.70;;;4.30;;
7316;SDS011;3699;51.462;6.696;2022-08-19T14:48:38;7.50;;;4.57;;
7316;SDS011;3699;51.462;6.696;2022-08-19T14:51:05;8.05;;;4.95;;
7316;SDS011;3699;51.462;6.696;2022-08-19T14:53:32;5.75;;;5.10;;
7316;SDS011;3699;51.462;6.696;2022-08-19T14:56:00;6.53;;;5.32;;
7316;SDS011;3699;51.462;6.696;2022-08-19T14:58:27;6.72;;;6.10;;
7316;SDS011;3699;51.462;6.696;2022-08-19T15:00:54;5.70;;;5.17;;
7316;SDS011;3699;51.462;6.696;2022-08-19T15:03:21;10.33;;;6.40;;